sensor_id;sensor_type;location;lat;lon;timestamp;P1;durP1;ratioP1;P2;durP2;ratioP2
14592;SDS011;7383;52.354;9.756;2023-04-30T00:00:46;3.17;;;1.88;;
14592;SDS011;7383;52.354;9.756;2023-04-30T00:03:13;3.70;;;2.08;;
14592;SDS011;7383;52.354;9.756;2023-04-30T00:05:41;2.05;;;1.85;;
14592;SDS011;7383;52.354;9.756;2023-04-30T00:08:07;2.65;;;1.67;;
14592;SDS011;7383;52.354;9.756;2023-04-30T00:10:34;2.05;;;1.83;;
14592;SDS011;7383;52.354;9.756;2023-04-30T00:13:00;3.75;;;1.90;;
14592;SDS011;7383;52.354;9.756;2023-04-30T00:15:27;3.40;;;1.70;;
14592;SDS011;7383;52.354;9.756;2023-04-30T00:17:53;4.20;;;1.80;;
14592;SDS011;7383;52.354;9.756;2023-04-30T00:20:20;2.28;;;1.60;;
14592;SDS011;7383;52.354;9.756;2023-04-30T00:22:48;1.80;;;1.50;;
14592;SDS011;7383;52.354;9.756;2023-04-30T00:25:16;2.47;;;2.25;;
14592;SDS011;7383;52.354;9.756;2023-04-30T00:27:44;2.50;;;2.05;;
14592;SDS011;7383;52.354;9.756;2023-04-30T00:30:11;2.20;;;1.90;;
14592;SDS011;7383;52.354;9.756;2023-04-30T00:32:38;3.80;;;1.98;;
14592;SDS011;7383;52.354;9.756;2023-04-30T00:35:05;1.83;;;1.73;;
14592;SDS011;7383;52.354;9.756;2023-04-30T00:37:32;2.40;;;2.03;;
14592;SDS011;7383;52.354;9.756;2023-04-30T00:39:59;3.80;;;1.80;;
14592;SDS011;7383;52.354;9.756;2023-04-30T00:42:26;2.97;;;2.03;;
14592;SDS011;7383;52.354;9.756;2023-04-30T00:44:52;2.10;;;1.75;;
14592;SDS011;7383;52.354;9.756;2023-04-30T00:47:19;2.70;;;1.52;;
14592;SDS011;7383;52.354;9.756;2023-04-30T00:49:45;2.63;;;1.95;;
14592;SDS011;7383;52.354;9.756;2023-04-30T00:52:12;2.67;;;1.77;;
14592;SDS011;7383;52.354;9.756;2023-04-30T00:54:39;1.65;;;1.42;;
14592;SDS011;7383;52.354;9.756;2023-04-30T00:57:07;1.90;;;1.70;;
14592;SDS011;7383;52.354;9.756;2023-04-30T00:59:37;3.35;;;1.95;;
14592;SDS011;7383;52.354;9.756;2023-04-30T01:02:04;1.90;;;1.65;;
14592;SDS011;7383;52.354;9.756;2023-04-30T01:04:30;3.30;;;2.08;;
14592;SDS011;7383;52.354;9.756;2023-04-30T01:06:57;1.48;;;1.40;;
14592;SDS011;7383;52.354;9.756;2023-04-30T01:09:24;1.60;;;1.50;;
14592;SDS011;7383;52.354;9.756;2023-04-30T01:11:53;2.72;;;1.80;;
14592;SDS011;7383;52.354;9.756;2023-04-30T01:14:28;3.15;;;1.85;;
14592;SDS011;7383;52.354;9.756;2023-04-30T01:17:01;1.70;;;1.60;;
14592;SDS011;7383;52.354;9.756;2023-04-30T01:19:35;2.00;;;1.70;;
14592;SDS011;7383;52.354;9.756;2023-04-30T01:22:06;2.47;;;1.70;;
14592;SDS011;7383;52.354;9.756;2023-04-30T01:24:42;3.08;;;1.50;;
14592;SDS011;7383;52.354;9.756;2023-04-30T01:27:23;1.98;;;1.60;;
14592;SDS011;7383;52.354;9.756;2023-04-30T01:29:58;1.63;;;1.52;;
14592;SDS011;7383;52.354;9.756;2023-04-30T01:32:28;1.90;;;1.80;;
14592;SDS011;7383;52.354;9.756;2023-04-30T01:34:54;2.50;;;1.65;;
14592;SDS011;7383;52.354;9.756;2023-04-30T01:37:23;2.22;;;1.73;;
14592;SDS011;7383;52.354;9.756;2023-04-30T01:39:56;2.03;;;1.73;;
14592;SDS011;7383;52.354;9.756;2023-04-30T01:42:35;2.47;;;2.00;;
14592;SDS011;7383;52.354;9.756;2023-04-30T01:45:24;2.38;;;1.83;;
14592;SDS011;7383;52.354;9.756;2023-04-30T01:48:02;1.92;;;1.75;;
14592;SDS011;7383;52.354;9.756;2023-04-30T01:50:41;2.60;;;2.00;;
14592;SDS011;7383;52.354;9.756;2023-04-30T01:53:12;1.98;;;1.85;;
14592;SDS011;7383;52.354;9.756;2023-04-30T01:55:45;2.47;;;1.63;;
14592;SDS011;7383;52.354;9.756;2023-04-30T01:58:17;2.47;;;1.85;;
14592;SDS011;7383;52.354;9.756;2023-04-30T02:00:49;3.35;;;2.33;;
14592;SDS011;7383;52.354;9.756;2023-04-30T02:03:15;2.35;;;1.90;;
14592;SDS011;7383;52.354;9.756;2023-04-30T02:05:42;4.18;;;2.20;;
14592;SDS011;7383;52.354;9.756;2023-04-30T02:08:08;3.10;;;2.05;;
14592;SDS011;7383;52.354;9.756;2023-04-30T02:10:35;3.03;;;2.17;;
14592;SDS011;7383;52.354;9.756;2023-04-30T02:13:01;2.83;;;2.15;;
14592;SDS011;7383;52.354;9.756;2023-04-30T02:15:28;4.22;;;2.10;;
14592;SDS011;7383;52.354;9.756;2023-04-30T02:17:56;2.17;;;1.98;;
14592;SDS011;7383;52.354;9.756;2023-04-30T02:20:23;2.15;;;1.95;;
14592;SDS011;7383;52.354;9.756;2023-04-30T02:22:49;2.38;;;2.00;;
14592;SDS011;7383;52.354;9.756;2023-04-30T02:25:16;2.42;;;1.67;;
14592;SDS011;7383;52.354;9.756;2023-04-30T02:27:42;2.53;;;2.10;;
14592;SDS011;7383;52.354;9.756;2023-04-30T02:30:09;1.73;;;1.63;;
14592;SDS011;7383;52.354;9.756;2023-04-30T02:32:36;3.78;;;2.15;;
14592;SDS011;7383;52.354;9.756;2023-04-30T02:35:04;2.53;;;2.20;;
14592;SDS011;7383;52.354;9.756;2023-04-30T02:37:31;2.95;;;2.00;;
14592;SDS011;7383;52.354;9.756;2023-04-30T02:39:57;2.28;;;2.08;;
14592;SDS011;7383;52.354;9.756;2023-04-30T02:42:23;2.20;;;2.00;;
14592;SDS011;7383;52.354;9.756;2023-04-30T02:44:50;2.25;;;2.00;;
14592;SDS011;7383;52.354;9.756;2023-04-30T02:47:16;2.80;;;1.80;;
14592;SDS011;7383;52.354;9.756;2023-04-30T02:49:43;4.45;;;2.63;;
14592;SDS011;7383;52.354;9.756;2023-04-30T02:52:10;2.13;;;1.95;;
14592;SDS011;7383;52.354;9.756;2023-04-30T02:54:37;3.28;;;2.20;;
14592;SDS011;7383;52.354;9.756;2023-04-30T02:57:03;3.30;;;2.22;;
14592;SDS011;7383;52.354;9.756;2023-04-30T02:59:30;3.63;;;2.50;;
14592;SDS011;7383;52.354;9.756;2023-04-30T03:01:57;2.05;;;1.92;;
14592;SDS011;7383;52.354;9.756;2023-04-30T03:04:24;2.67;;;2.13;;
14592;SDS011;7383;52.354;9.756;2023-04-30T03:06:51;2.50;;;2.13;;
14592;SDS011;7383;52.354;9.756;2023-04-30T03:09:18;2.22;;;2.03;;
14592;SDS011;7383;52.354;9.756;2023-04-30T03:11:45;2.45;;;2.20;;
14592;SDS011;7383;52.354;9.756;2023-04-30T03:14:12;2.35;;;2.15;;
14592;SDS011;7383;52.354;9.756;2023-04-30T03:16:39;2.78;;;2.30;;
14592;SDS011;7383;52.354;9.756;2023-04-30T03:19:05;2.38;;;2.10;;
14592;SDS011;7383;52.354;9.756;2023-04-30T03:21:32;2.00;;;1.90;;
14592;SDS011;7383;52.354;9.756;2023-04-30T03:23:58;2.15;;;2.05;;
14592;SDS011;7383;52.354;9.756;2023-04-30T03:26:26;4.22;;;1.92;;
14592;SDS011;7383;52.354;9.756;2023-04-30T03:28:53;2.40;;;2.20;;
14592;SDS011;7383;52.354;9.756;2023-04-30T03:31:20;2.30;;;2.10;;
14592;SDS011;7383;52.354;9.756;2023-04-30T03:33:46;2.30;;;2.10;;
14592;SDS011;7383;52.354;9.756;2023-04-30T03:36:12;2.30;;;2.08;;
14592;SDS011;7383;52.354;9.756;2023-04-30T03:38:39;2.40;;;2.20;;
14592;SDS011;7383;52.354;9.756;2023-04-30T03:41:06;2.63;;;2.17;;
14592;SDS011;7383;52.354;9.756;2023-04-30T03:43:33;2.20;;;2.05;;
14592;SDS011;7383;52.354;9.756;2023-04-30T03:46:00;2.88;;;2.22;;
14592;SDS011;7383;52.354;9.756;2023-04-30T03:48:27;2.53;;;2.33;;
14592;SDS011;7383;52.354;9.756;2023-04-30T03:50:53;2.90;;;2.42;;
14592;SDS011;7383;52.354;9.756;2023-04-30T03:53:19;2.50;;;2.30;;
14592;SDS011;7383;52.354;9.756;2023-04-30T03:55:47;3.10;;;2.50;;
14592;SDS011;7383;52.354;9.756;2023-04-30T03:58:14;3.88;;;2.40;;
14592;SDS011;7383;52.354;9.756;2023-04-30T04:00:42;2.63;;;2.42;;
14592;SDS011;7383;52.354;9.756;2023-04-30T04:03:11;2.75;;;2.10;;
14592;SDS011;7383;52.354;9.756;2023-04-30T04:05:38;2.40;;;2.20;;
14592;SDS011;7383;52.354;9.756;2023-04-30T04:08:05;3.15;;;2.50;;
14592;SDS011;7383;52.354;9.756;2023-04-30T04:10:31;2.55;;;2.35;;
14592;SDS011;7383;52.354;9.756;2023-04-30T04:12:59;2.70;;;2.50;;
14592;SDS011;7383;52.354;9.756;2023-04-30T04:15:25;2.55;;;2.35;;
14592;SDS011;7383;52.354;9.756;2023-04-30T04:17:53;3.38;;;2.30;;
14592;SDS011;7383;52.354;9.756;2023-04-30T04:20:20;2.97;;;2.40;;
14592;SDS011;7383;52.354;9.756;2023-04-30T04:22:46;2.50;;;2.20;;
14592;SDS011;7383;52.354;9.756;2023-04-30T04:25:13;2.88;;;2.30;;
14592;SDS011;7383;52.354;9.756;2023-04-30T04:27:42;3.78;;;2.75;;
14592;SDS011;7383;52.354;9.756;2023-04-30T04:30:09;3.05;;;2.70;;
14592;SDS011;7383;52.354;9.756;2023-04-30T04:32:36;2.90;;;2.42;;
14592;SDS011;7383;52.354;9.756;2023-04-30T04:35:12;3.72;;;2.60;;
14592;SDS011;7383;52.354;9.756;2023-04-30T04:37:39;2.40;;;2.20;;
14592;SDS011;7383;52.354;9.756;2023-04-30T04:40:06;3.42;;;2.25;;
14592;SDS011;7383;52.354;9.756;2023-04-30T04:42:34;2.42;;;2.33;;
14592;SDS011;7383;52.354;9.756;2023-04-30T04:45:02;4.55;;;2.60;;
14592;SDS011;7383;52.354;9.756;2023-04-30T04:47:30;2.97;;;2.40;;
14592;SDS011;7383;52.354;9.756;2023-04-30T04:49:56;2.80;;;2.60;;
14592;SDS011;7383;52.354;9.756;2023-04-30T04:52:24;2.30;;;2.15;;
14592;SDS011;7383;52.354;9.756;2023-04-30T04:54:50;2.83;;;2.45;;
14592;SDS011;7383;52.354;9.756;2023-04-30T04:57:17;2.50;;;2.40;;
14592;SDS011;7383;52.354;9.756;2023-04-30T04:59:43;2.53;;;2.33;;
14592;SDS011;7383;52.354;9.756;2023-04-30T05:02:10;2.75;;;2.55;;
14592;SDS011;7383;52.354;9.756;2023-04-30T05:04:36;2.90;;;2.55;;
14592;SDS011;7383;52.354;9.756;2023-04-30T05:07:03;2.65;;;2.45;;
14592;SDS011;7383;52.354;9.756;2023-04-30T05:09:31;2.45;;;2.22;;
14592;SDS011;7383;52.354;9.756;2023-04-30T05:11:57;2.60;;;2.40;;
14592;SDS011;7383;52.354;9.756;2023-04-30T05:14:24;2.65;;;2.40;;
14592;SDS011;7383;52.354;9.756;2023-04-30T05:16:50;3.17;;;2.83;;
14592;SDS011;7383;52.354;9.756;2023-04-30T05:19:17;3.75;;;2.50;;
14592;SDS011;7383;52.354;9.756;2023-04-30T05:21:43;3.20;;;2.70;;
14592;SDS011;7383;52.354;9.756;2023-04-30T05:24:10;4.25;;;2.67;;
14592;SDS011;7383;52.354;9.756;2023-04-30T05:26:38;3.35;;;2.33;;
14592;SDS011;7383;52.354;9.756;2023-04-30T05:29:05;3.70;;;2.55;;
14592;SDS011;7383;52.354;9.756;2023-04-30T05:31:31;2.58;;;2.38;;
14592;SDS011;7383;52.354;9.756;2023-04-30T05:33:58;3.50;;;2.60;;
14592;SDS011;7383;52.354;9.756;2023-04-30T05:36:24;2.90;;;2.20;;
14592;SDS011;7383;52.354;9.756;2023-04-30T05:38:51;2.58;;;2.20;;
14592;SDS011;7383;52.354;9.756;2023-04-30T05:41:17;3.97;;;2.13;;
14592;SDS011;7383;52.354;9.756;2023-04-30T05:43:45;3.78;;;2.08;;
14592;SDS011;7383;52.354;9.756;2023-04-30T05:46:11;3.40;;;2.50;;
14592;SDS011;7383;52.354;9.756;2023-04-30T05:48:38;2.38;;;2.17;;
14592;SDS011;7383;52.354;9.756;2023-04-30T05:51:05;2.70;;;2.25;;
14592;SDS011;7383;52.354;9.756;2023-04-30T05:53:31;4.43;;;2.53;;
14592;SDS011;7383;52.354;9.756;2023-04-30T05:55:58;3.00;;;2.60;;
14592;SDS011;7383;52.354;9.756;2023-04-30T05:58:24;3.67;;;2.03;;
14592;SDS011;7383;52.354;9.756;2023-04-30T06:00:52;3.20;;;2.53;;
14592;SDS011;7383;52.354;9.756;2023-04-30T06:03:20;3.50;;;2.50;;
14592;SDS011;7383;52.354;9.756;2023-04-30T06:05:47;3.00;;;2.22;;
14592;SDS011;7383;52.354;9.756;2023-04-30T06:08:13;3.33;;;2.00;;
14592;SDS011;7383;52.354;9.756;2023-04-30T06:10:40;5.68;;;2.42;;
14592;SDS011;7383;52.354;9.756;2023-04-30T06:13:07;3.17;;;2.50;;
14592;SDS011;7383;52.354;9.756;2023-04-30T06:15:33;2.58;;;2.00;;
14592;SDS011;7383;52.354;9.756;2023-04-30T06:18:01;3.10;;;2.30;;
14592;SDS011;7383;52.354;9.756;2023-04-30T06:20:28;2.67;;;1.95;;
14592;SDS011;7383;52.354;9.756;2023-04-30T07:27:35;3.22;;;1.83;;
14592;SDS011;7383;52.354;9.756;2023-04-30T07:30:02;2.47;;;1.90;;
14592;SDS011;7383;52.354;9.756;2023-04-30T07:32:29;2.70;;;1.80;;
14592;SDS011;7383;52.354;9.756;2023-04-30T07:34:55;2.08;;;1.88;;
14592;SDS011;7383;52.354;9.756;2023-04-30T07:37:22;2.53;;;1.58;;
14592;SDS011;7383;52.354;9.756;2023-04-30T07:39:48;2.70;;;1.67;;
14592;SDS011;7383;52.354;9.756;2023-04-30T07:42:15;2.50;;;1.80;;
14592;SDS011;7383;52.354;9.756;2023-04-30T07:44:43;3.25;;;2.50;;
14592;SDS011;7383;52.354;9.756;2023-04-30T07:47:10;2.28;;;1.63;;
14592;SDS011;7383;52.354;9.756;2023-04-30T07:49:36;2.40;;;1.65;;
14592;SDS011;7383;52.354;9.756;2023-04-30T07:52:03;2.88;;;1.80;;
14592;SDS011;7383;52.354;9.756;2023-04-30T07:54:30;2.13;;;1.80;;
14592;SDS011;7383;52.354;9.756;2023-04-30T07:57:00;2.05;;;1.88;;
14592;SDS011;7383;52.354;9.756;2023-04-30T07:59:27;2.28;;;1.90;;
14592;SDS011;7383;52.354;9.756;2023-04-30T08:01:55;3.20;;;1.95;;
14592;SDS011;7383;52.354;9.756;2023-04-30T08:04:21;2.90;;;1.92;;
14592;SDS011;7383;52.354;9.756;2023-04-30T08:06:48;2.65;;;1.88;;
14592;SDS011;7383;52.354;9.756;2023-04-30T08:09:14;2.72;;;1.77;;
14592;SDS011;7383;52.354;9.756;2023-04-30T08:11:41;2.15;;;1.85;;
14592;SDS011;7383;52.354;9.756;2023-04-30T08:14:07;4.07;;;2.20;;
14592;SDS011;7383;52.354;9.756;2023-04-30T08:16:34;2.67;;;2.00;;
14592;SDS011;7383;52.354;9.756;2023-04-30T08:19:02;3.13;;;2.05;;
14592;SDS011;7383;52.354;9.756;2023-04-30T08:21:29;4.47;;;2.13;;
14592;SDS011;7383;52.354;9.756;2023-04-30T08:23:55;3.67;;;1.90;;
14592;SDS011;7383;52.354;9.756;2023-04-30T08:26:23;2.20;;;1.60;;
14592;SDS011;7383;52.354;9.756;2023-04-30T08:28:50;1.67;;;1.50;;
14592;SDS011;7383;52.354;9.756;2023-04-30T08:31:17;3.50;;;2.17;;
14592;SDS011;7383;52.354;9.756;2023-04-30T08:33:46;2.95;;;1.70;;
14592;SDS011;7383;52.354;9.756;2023-04-30T08:52:20;1.70;;;1.58;;
14592;SDS011;7383;52.354;9.756;2023-04-30T08:58:33;2.65;;;1.65;;
14592;SDS011;7383;52.354;9.756;2023-04-30T09:01:05;2.85;;;1.80;;
14592;SDS011;7383;52.354;9.756;2023-04-30T09:03:42;3.72;;;2.10;;
14592;SDS011;7383;52.354;9.756;2023-04-30T09:25:38;2.38;;;1.90;;
14592;SDS011;7383;52.354;9.756;2023-04-30T09:28:13;2.38;;;1.92;;
14592;SDS011;7383;52.354;9.756;2023-04-30T09:30:55;3.05;;;1.92;;
14592;SDS011;7383;52.354;9.756;2023-04-30T09:33:29;3.00;;;1.92;;
14592;SDS011;7383;52.354;9.756;2023-04-30T09:42:08;2.28;;;1.70;;
14592;SDS011;7383;52.354;9.756;2023-04-30T09:44:36;3.70;;;2.20;;
14592;SDS011;7383;52.354;9.756;2023-04-30T09:47:05;2.50;;;2.30;;
14592;SDS011;7383;52.354;9.756;2023-04-30T09:49:39;2.40;;;2.20;;
14592;SDS011;7383;52.354;9.756;2023-04-30T09:52:07;3.45;;;2.70;;
14592;SDS011;7383;52.354;9.756;2023-04-30T09:54:33;3.17;;;2.10;;
14592;SDS011;7383;52.354;9.756;2023-04-30T09:57:01;2.63;;;1.92;;
14592;SDS011;7383;52.354;9.756;2023-04-30T09:59:30;2.63;;;2.15;;
14592;SDS011;7383;52.354;9.756;2023-04-30T10:02:00;2.00;;;1.80;;
14592;SDS011;7383;52.354;9.756;2023-04-30T10:04:32;2.08;;;1.88;;
14592;SDS011;7383;52.354;9.756;2023-04-30T10:07:01;2.15;;;1.92;;
14592;SDS011;7383;52.354;9.756;2023-04-30T10:09:31;3.60;;;2.38;;
14592;SDS011;7383;52.354;9.756;2023-04-30T10:12:04;2.05;;;1.85;;
14592;SDS011;7383;52.354;9.756;2023-04-30T10:14:40;2.65;;;2.13;;
14592;SDS011;7383;52.354;9.756;2023-04-30T10:17:13;2.83;;;1.77;;
14592;SDS011;7383;52.354;9.756;2023-04-30T10:19:42;2.13;;;1.80;;
14592;SDS011;7383;52.354;9.756;2023-04-30T10:22:14;2.42;;;1.67;;
14592;SDS011;7383;52.354;9.756;2023-04-30T10:24:41;3.63;;;1.90;;
14592;SDS011;7383;52.354;9.756;2023-04-30T10:27:11;2.13;;;1.90;;
14592;SDS011;7383;52.354;9.756;2023-04-30T10:29:40;2.00;;;1.63;;
14592;SDS011;7383;52.354;9.756;2023-04-30T10:32:09;1.88;;;1.63;;
14592;SDS011;7383;52.354;9.756;2023-04-30T10:34:40;2.45;;;1.70;;
14592;SDS011;7383;52.354;9.756;2023-04-30T10:37:16;2.10;;;1.83;;
14592;SDS011;7383;52.354;9.756;2023-04-30T10:39:47;2.80;;;1.77;;
14592;SDS011;7383;52.354;9.756;2023-04-30T10:42:16;1.70;;;1.60;;
14592;SDS011;7383;52.354;9.756;2023-04-30T10:44:44;2.45;;;1.70;;
14592;SDS011;7383;52.354;9.756;2023-04-30T10:47:10;3.60;;;2.08;;
14592;SDS011;7383;52.354;9.756;2023-04-30T10:49:37;3.05;;;1.80;;
14592;SDS011;7383;52.354;9.756;2023-04-30T10:52:07;2.72;;;1.63;;
14592;SDS011;7383;52.354;9.756;2023-04-30T10:54:36;2.47;;;1.80;;
14592;SDS011;7383;52.354;9.756;2023-04-30T10:57:10;3.03;;;1.85;;
14592;SDS011;7383;52.354;9.756;2023-04-30T10:59:40;2.63;;;1.70;;
14592;SDS011;7383;52.354;9.756;2023-04-30T11:02:10;2.88;;;1.85;;
14592;SDS011;7383;52.354;9.756;2023-04-30T11:07:36;1.80;;;1.52;;
14592;SDS011;7383;52.354;9.756;2023-04-30T11:10:06;1.67;;;1.58;;
14592;SDS011;7383;52.354;9.756;2023-04-30T11:12:33;2.47;;;1.50;;
14592;SDS011;7383;52.354;9.756;2023-04-30T11:15:00;1.60;;;1.27;;
14592;SDS011;7383;52.354;9.756;2023-04-30T11:17:38;1.95;;;1.48;;
14592;SDS011;7383;52.354;9.756;2023-04-30T11:20:18;1.73;;;1.63;;
14592;SDS011;7383;52.354;9.756;2023-04-30T11:22:48;1.70;;;1.60;;
14592;SDS011;7383;52.354;9.756;2023-04-30T11:25:38;1.70;;;1.50;;
14592;SDS011;7383;52.354;9.756;2023-04-30T11:28:06;1.60;;;1.50;;
14592;SDS011;7383;52.354;9.756;2023-04-30T11:30:52;2.00;;;1.80;;
14592;SDS011;7383;52.354;9.756;2023-04-30T11:33:23;1.98;;;1.80;;
14592;SDS011;7383;52.354;9.756;2023-04-30T11:35:50;2.22;;;1.70;;
14592;SDS011;7383;52.354;9.756;2023-04-30T11:38:18;1.85;;;1.45;;
14592;SDS011;7383;52.354;9.756;2023-04-30T11:40:46;1.83;;;1.50;;
14592;SDS011;7383;52.354;9.756;2023-04-30T11:43:20;1.90;;;1.70;;
14592;SDS011;7383;52.354;9.756;2023-04-30T11:45:57;2.33;;;1.70;;
14592;SDS011;7383;52.354;9.756;2023-04-30T11:48:30;1.92;;;1.83;;
14592;SDS011;7383;52.354;9.756;2023-04-30T11:51:04;2.17;;;1.90;;
14592;SDS011;7383;52.354;9.756;2023-04-30T11:53:41;1.83;;;1.73;;
14592;SDS011;7383;52.354;9.756;2023-04-30T11:56:09;2.20;;;1.55;;
14592;SDS011;7383;52.354;9.756;2023-04-30T11:58:36;2.70;;;1.65;;
14592;SDS011;7383;52.354;9.756;2023-04-30T12:01:04;1.77;;;1.63;;
14592;SDS011;7383;52.354;9.756;2023-04-30T12:06:20;2.10;;;1.90;;
14592;SDS011;7383;52.354;9.756;2023-04-30T12:08:47;2.45;;;2.10;;
14592;SDS011;7383;52.354;9.756;2023-04-30T12:11:20;4.60;;;2.25;;
14592;SDS011;7383;52.354;9.756;2023-04-30T12:13:50;1.90;;;1.50;;
14592;SDS011;7383;52.354;9.756;2023-04-30T12:16:17;2.20;;;1.63;;
14592;SDS011;7383;52.354;9.756;2023-04-30T12:18:43;2.10;;;1.75;;
14592;SDS011;7383;52.354;9.756;2023-04-30T12:21:11;1.67;;;1.58;;
14592;SDS011;7383;52.354;9.756;2023-04-30T12:23:40;1.75;;;1.55;;
14592;SDS011;7383;52.354;9.756;2023-04-30T12:26:09;2.92;;;2.03;;
14592;SDS011;7383;52.354;9.756;2023-04-30T12:28:35;3.40;;;1.92;;
14592;SDS011;7383;52.354;9.756;2023-04-30T12:31:02;2.22;;;1.40;;
14592;SDS011;7383;52.354;9.756;2023-04-30T12:33:30;2.28;;;1.55;;
14592;SDS011;7383;52.354;9.756;2023-04-30T12:35:57;1.60;;;1.50;;
14592;SDS011;7383;52.354;9.756;2023-04-30T12:38:25;2.88;;;1.70;;
14592;SDS011;7383;52.354;9.756;2023-04-30T12:40:51;2.33;;;1.42;;
14592;SDS011;7383;52.354;9.756;2023-04-30T12:43:18;1.60;;;1.50;;
14592;SDS011;7383;52.354;9.756;2023-04-30T12:45:45;2.65;;;1.65;;
14592;SDS011;7383;52.354;9.756;2023-04-30T12:48:15;1.52;;;1.42;;
14592;SDS011;7383;52.354;9.756;2023-04-30T12:50:45;1.67;;;1.40;;
14592;SDS011;7383;52.354;9.756;2023-04-30T12:53:12;1.77;;;1.55;;
14592;SDS011;7383;52.354;9.756;2023-04-30T12:55:40;2.15;;;1.50;;
14592;SDS011;7383;52.354;9.756;2023-04-30T12:58:07;1.60;;;1.40;;
14592;SDS011;7383;52.354;9.756;2023-04-30T13:00:44;1.63;;;1.50;;
14592;SDS011;7383;52.354;9.756;2023-04-30T13:03:13;1.30;;;1.20;;
14592;SDS011;7383;52.354;9.756;2023-04-30T13:05:40;2.17;;;1.60;;
14592;SDS011;7383;52.354;9.756;2023-04-30T13:08:08;1.58;;;1.48;;
14592;SDS011;7383;52.354;9.756;2023-04-30T13:10:34;2.05;;;1.30;;
14592;SDS011;7383;52.354;9.756;2023-04-30T13:13:02;1.85;;;1.45;;
14592;SDS011;7383;52.354;9.756;2023-04-30T13:15:28;2.03;;;1.30;;
14592;SDS011;7383;52.354;9.756;2023-04-30T13:17:55;1.60;;;1.30;;
14592;SDS011;7383;52.354;9.756;2023-04-30T13:20:22;2.40;;;1.65;;
14592;SDS011;7383;52.354;9.756;2023-04-30T13:22:49;2.28;;;1.50;;
14592;SDS011;7383;52.354;9.756;2023-04-30T13:25:17;2.38;;;1.52;;
14592;SDS011;7383;52.354;9.756;2023-04-30T13:27:44;2.40;;;1.50;;
14592;SDS011;7383;52.354;9.756;2023-04-30T13:30:13;2.47;;;1.52;;
14592;SDS011;7383;52.354;9.756;2023-04-30T13:32:39;1.75;;;1.65;;
14592;SDS011;7383;52.354;9.756;2023-04-30T13:35:07;2.70;;;1.85;;
14592;SDS011;7383;52.354;9.756;2023-04-30T13:37:34;2.45;;;1.42;;
14592;SDS011;7383;52.354;9.756;2023-04-30T13:40:01;1.67;;;1.58;;
14592;SDS011;7383;52.354;9.756;2023-04-30T13:42:28;2.03;;;1.58;;
14592;SDS011;7383;52.354;9.756;2023-04-30T13:44:55;4.68;;;1.48;;
14592;SDS011;7383;52.354;9.756;2023-04-30T13:47:25;1.55;;;1.45;;
14592;SDS011;7383;52.354;9.756;2023-04-30T13:49:51;2.03;;;1.50;;
14592;SDS011;7383;52.354;9.756;2023-04-30T13:52:18;2.50;;;1.80;;
14592;SDS011;7383;52.354;9.756;2023-04-30T13:54:44;1.67;;;1.55;;
14592;SDS011;7383;52.354;9.756;2023-04-30T13:57:11;1.60;;;1.50;;
14592;SDS011;7383;52.354;9.756;2023-04-30T13:59:39;1.75;;;1.65;;
14592;SDS011;7383;52.354;9.756;2023-04-30T14:02:05;2.03;;;1.83;;
14592;SDS011;7383;52.354;9.756;2023-04-30T14:04:33;1.75;;;1.65;;
14592;SDS011;7383;52.354;9.756;2023-04-30T14:07:00;1.83;;;1.58;;
14592;SDS011;7383;52.354;9.756;2023-04-30T14:09:27;1.90;;;1.58;;
14592;SDS011;7383;52.354;9.756;2023-04-30T14:11:54;1.33;;;1.33;;
14592;SDS011;7383;52.354;9.756;2023-04-30T14:14:22;2.05;;;1.60;;
14592;SDS011;7383;52.354;9.756;2023-04-30T14:16:48;1.42;;;1.33;;
14592;SDS011;7383;52.354;9.756;2023-04-30T14:19:15;1.83;;;1.60;;
14592;SDS011;7383;52.354;9.756;2023-04-30T14:21:42;1.63;;;1.52;;
14592;SDS011;7383;52.354;9.756;2023-04-30T14:24:09;1.80;;;1.70;;
14592;SDS011;7383;52.354;9.756;2023-04-30T14:26:36;1.90;;;1.80;;
14592;SDS011;7383;52.354;9.756;2023-04-30T14:29:03;1.80;;;1.70;;
14592;SDS011;7383;52.354;9.756;2023-04-30T14:31:29;2.10;;;1.58;;
14592;SDS011;7383;52.354;9.756;2023-04-30T14:33:56;1.77;;;1.40;;
14592;SDS011;7383;52.354;9.756;2023-04-30T14:36:22;1.70;;;1.60;;
14592;SDS011;7383;52.354;9.756;2023-04-30T14:38:50;1.35;;;1.25;;
14592;SDS011;7383;52.354;9.756;2023-04-30T14:41:17;2.15;;;1.60;;
14592;SDS011;7383;52.354;9.756;2023-04-30T14:43:43;1.80;;;1.70;;
14592;SDS011;7383;52.354;9.756;2023-04-30T14:46:12;2.63;;;1.92;;
14592;SDS011;7383;52.354;9.756;2023-04-30T14:48:38;1.77;;;1.63;;
14592;SDS011;7383;52.354;9.756;2023-04-30T14:51:05;1.88;;;1.77;;
14592;SDS011;7383;52.354;9.756;2023-04-30T14:53:31;2.42;;;1.90;;
14592;SDS011;7383;52.354;9.756;2023-04-30T14:55:59;1.92;;;1.70;;
14592;SDS011;7383;52.354;9.756;2023-04-30T14:58:26;1.80;;;1.70;;
14592;SDS011;7383;52.354;9.756;2023-04-30T15:00:52;1.77;;;1.40;;
14592;SDS011;7383;52.354;9.756;2023-04-30T15:03:21;1.88;;;1.77;;
14592;SDS011;7383;52.354;9.756;2023-04-30T15:05:48;1.63;;;1.42;;
14592;SDS011;7383;52.354;9.756;2023-04-30T15:08:15;1.85;;;1.75;;
14592;SDS011;7383;52.354;9.756;2023-04-30T15:10:42;2.20;;;2.00;;
14592;SDS011;7383;52.354;9.756;2023-04-30T15:13:10;1.80;;;1.70;;
14592;SDS011;7383;52.354;9.756;2023-04-30T15:15:38;1.80;;;1.70;;
14592;SDS011;7383;52.354;9.756;2023-04-30T15:18:04;1.80;;;1.55;;
14592;SDS011;7383;52.354;9.756;2023-04-30T15:20:31;1.80;;;1.70;;
14592;SDS011;7383;52.354;9.756;2023-04-30T15:22:58;1.77;;;1.67;;
14592;SDS011;7383;52.354;9.756;2023-04-30T15:25:24;2.17;;;1.70;;
14592;SDS011;7383;52.354;9.756;2023-04-30T15:27:51;1.70;;;1.60;;
14592;SDS011;7383;52.354;9.756;2023-04-30T15:30:19;2.70;;;1.85;;
14592;SDS011;7383;52.354;9.756;2023-04-30T15:32:46;2.20;;;1.73;;
14592;SDS011;7383;52.354;9.756;2023-04-30T15:35:13;1.80;;;1.70;;
14592;SDS011;7383;52.354;9.756;2023-04-30T15:37:39;1.67;;;1.58;;
14592;SDS011;7383;52.354;9.756;2023-04-30T15:40:06;2.63;;;1.70;;
14592;SDS011;7383;52.354;9.756;2023-04-30T15:42:34;2.08;;;1.77;;
14592;SDS011;7383;52.354;9.756;2023-04-30T15:45:02;1.92;;;1.70;;
14592;SDS011;7383;52.354;9.756;2023-04-30T15:47:30;1.50;;;1.40;;
14592;SDS011;7383;52.354;9.756;2023-04-30T15:49:56;2.25;;;1.85;;
14592;SDS011;7383;52.354;9.756;2023-04-30T15:52:23;1.65;;;1.55;;
14592;SDS011;7383;52.354;9.756;2023-04-30T15:54:49;1.67;;;1.58;;
14592;SDS011;7383;52.354;9.756;2023-04-30T15:57:16;1.77;;;1.67;;
14592;SDS011;7383;52.354;9.756;2023-04-30T15:59:43;1.70;;;1.60;;
14592;SDS011;7383;52.354;9.756;2023-04-30T16:02:10;1.83;;;1.73;;
14592;SDS011;7383;52.354;9.756;2023-04-30T16:04:37;1.77;;;1.65;;
14592;SDS011;7383;52.354;9.756;2023-04-30T16:07:05;1.60;;;1.50;;
14592;SDS011;7383;52.354;9.756;2023-04-30T16:09:34;1.50;;;1.40;;
14592;SDS011;7383;52.354;9.756;2023-04-30T16:12:00;1.83;;;1.70;;
14592;SDS011;7383;52.354;9.756;2023-04-30T16:14:27;1.60;;;1.50;;
14592;SDS011;7383;52.354;9.756;2023-04-30T16:16:53;1.73;;;1.50;;
14592;SDS011;7383;52.354;9.756;2023-04-30T16:19:20;2.03;;;1.83;;
14592;SDS011;7383;52.354;9.756;2023-04-30T16:21:48;1.60;;;1.50;;
14592;SDS011;7383;52.354;9.756;2023-04-30T16:24:17;1.48;;;1.38;;
14592;SDS011;7383;52.354;9.756;2023-04-30T16:26:43;1.48;;;1.38;;
14592;SDS011;7383;52.354;9.756;2023-04-30T16:29:12;1.65;;;1.55;;
14592;SDS011;7383;52.354;9.756;2023-04-30T16:31:39;1.90;;;1.80;;
14592;SDS011;7383;52.354;9.756;2023-04-30T16:34:06;2.10;;;1.90;;
14592;SDS011;7383;52.354;9.756;2023-04-30T16:36:35;1.92;;;1.83;;
14592;SDS011;7383;52.354;9.756;2023-04-30T16:39:04;1.70;;;1.60;;
14592;SDS011;7383;52.354;9.756;2023-04-30T16:41:30;1.73;;;1.60;;
14592;SDS011;7383;52.354;9.756;2023-04-30T16:43:57;2.25;;;1.70;;
14592;SDS011;7383;52.354;9.756;2023-04-30T16:46:24;1.70;;;1.60;;
14592;SDS011;7383;52.354;9.756;2023-04-30T16:48:51;1.40;;;1.30;;
14592;SDS011;7383;52.354;9.756;2023-04-30T16:51:17;1.75;;;1.65;;
14592;SDS011;7383;52.354;9.756;2023-04-30T16:53:46;1.60;;;1.50;;
14592;SDS011;7383;52.354;9.756;2023-04-30T16:56:18;1.65;;;1.55;;
14592;SDS011;7383;52.354;9.756;2023-04-30T16:58:47;1.65;;;1.55;;
14592;SDS011;7383;52.354;9.756;2023-04-30T17:01:13;2.05;;;1.60;;